Time;durP1;ratioP1;P1;durP2;ratioP2;P2;SDS_P1;SDS_P2;PMS_P1;PMS_P2;Temp;Humidity;BMP_temperature;BMP_pressure;BME280_temperature;BME280_humidity;BME280_pressure;Samples;Min_cycle;Max_cycle;Signal;HPM_P1;HPM_P2
2022/08/06 00:02:04;;;;;;;0.75;0.30;;;25.00;47.00;24.20;102063.00;;;;5087065;28;20051;-66
2022/08/06 00:04:50;;;;;;;0.80;0.30;;;25.00;47.00;24.20;102057.00;;;;5087134;28;20092;-66
2022/08/06 00:07:36;;;;;;;0.30;0.20;;;25.00;47.10;24.20;102058.00;;;;5086370;28;20486;-66
2022/08/06 00:10:22;;;;;;;1.20;0.47;;;25.00;47.10;24.20;102059.00;;;;5087806;28;20048;-66
2022/08/06 00:13:08;;;;;;;0.65;0.20;;;24.90;47.10;24.20;102062.00;;;;5084484;28;20033;-66
2022/08/06 00:15:54;;;;;;;0.90;0.30;;;25.00;47.20;24.20;102064.00;;;;5083683;28;20042;-66
2022/08/06 00:18:41;;;;;;;1.35;0.40;;;24.90;47.00;24.10;102070.00;;;;5085201;28;20089;-66
2022/08/06 00:21:27;;;;;;;0.63;0.30;;;24.90;47.00;24.10;102073.00;;;;5081003;28;20571;-66
2022/08/06 00:24:13;;;;;;;0.63;0.20;;;24.90;47.10;24.10;102078.00;;;;5080125;28;20418;-66
2022/08/06 00:26:59;;;;;;;0.40;0.20;;;24.90;47.20;24.10;102087.00;;;;5086752;28;20050;-66
2022/08/06 00:29:45;;;;;;;0.30;0.25;;;24.90;47.20;24.10;102082.00;;;;5094627;28;20040;-66
2022/08/06 00:32:31;;;;;;;0.63;0.30;;;24.90;46.90;24.10;102085.00;;;;5081357;28;20043;-66
2022/08/06 00:35:17;;;;;;;0.25;0.25;;;24.80;46.90;24.10;102092.00;;;;5097496;28;20044;-66
2022/08/06 00:38:03;;;;;;;0.30;0.30;;;24.90;46.90;24.10;102092.00;;;;5074971;28;20055;-66
2022/08/06 00:40:49;;;;;;;0.55;0.20;;;24.80;47.00;24.10;102098.00;;;;5083734;28;20051;-66
2022/08/06 00:43:35;;;;;;;0.52;0.30;;;24.80;47.00;24.10;102104.00;;;;5075870;28;20040;-66
2022/08/06 00:46:23;;;;;;;0.20;0.20;;;24.80;47.10;24.10;102106.00;;;;5079081;28;20032;-66
2022/08/06 00:49:09;;;;;;;0.60;0.43;;;24.70;47.00;24.00;102113.00;;;;5075635;28;20053;-66
2022/08/06 00:51:55;;;;;;;0.53;0.20;;;24.80;47.00;24.00;102113.00;;;;5086112;28;20032;-66
2022/08/06 00:54:42;;;;;;;0.95;0.30;;;24.80;47.10;24.00;102111.00;;;;5088863;28;20586;-66
2022/08/06 00:57:28;;;;;;;0.70;0.40;;;24.80;47.00;24.00;102115.00;;;;5080453;28;20437;-66
2022/08/06 01:00:14;;;;;;;0.70;0.20;;;24.80;47.00;24.00;102116.00;;;;5093208;28;20036;-67
2022/08/06 01:03:00;;;;;;;1.75;0.30;;;24.70;47.00;24.00;102122.00;;;;5085747;28;20119;-66
2022/08/06 01:05:46;;;;;;;0.55;0.20;;;24.70;47.00;24.00;102119.00;;;;5084090;28;20036;-66
2022/08/06 01:08:32;;;;;;;0.93;0.32;;;24.70;47.10;24.00;102125.00;;;;5083604;28;20040;-66
2022/08/06 01:11:18;;;;;;;1.00;0.40;;;24.60;47.10;24.00;102133.00;;;;5087603;28;20051;-66
2022/08/06 01:14:05;;;;;;;0.82;0.30;;;24.70;47.20;23.90;102138.00;;;;5071055;28;20039;-66
2022/08/06 01:16:59;;;;;;;1.35;0.20;;;24.70;47.20;23.90;102129.00;;;;5080603;28;20090;-66
2022/08/06 01:20:30;;;;;;;0.20;0.20;;;24.60;47.20;23.90;102140.00;;;;5070460;28;20043;-66
2022/08/06 01:23:58;;;;;;;0.35;0.22;;;24.60;47.20;23.90;102141.00;;;;5060964;28;20356;-66
2022/08/06 01:26:53;;;;;;;1.15;0.30;;;24.60;47.10;23.90;102136.00;;;;5077651;28;20040;-66
2022/08/06 01:29:39;;;;;;;2.35;0.45;;;24.60;47.10;23.90;102146.00;;;;5055720;28;20039;-66
2022/08/06 01:32:32;;;;;;;0.35;0.20;;;24.60;47.10;23.80;102147.00;;;;5043149;28;20036;-66
2022/08/06 01:35:26;;;;;;;0.30;0.30;;;24.60;47.10;23.80;102142.00;;;;5070343;28;20035;-66
2022/08/06 01:38:16;;;;;;;0.30;0.20;;;24.60;47.10;23.80;102145.00;;;;5059743;28;20827;-66
2022/08/06 01:41:05;;;;;;;0.30;0.20;;;24.60;47.10;23.80;102153.00;;;;5067149;28;20032;-66
2022/08/06 01:43:51;;;;;;;0.20;0.20;;;24.60;47.10;23.80;102145.00;;;;5072124;28;20044;-66
2022/08/06 01:46:43;;;;;;;0.28;0.28;;;24.50;47.20;23.80;102149.00;;;;5075951;28;20044;-66
2022/08/06 01:49:30;;;;;;;0.28;0.15;;;24.50;47.10;23.80;102150.00;;;;5072256;28;20407;-66
2022/08/06 01:52:16;;;;;;;0.20;0.20;;;24.50;47.00;23.80;102148.00;;;;5072805;28;20043;-66
2022/08/06 01:55:08;;;;;;;0.30;0.20;;;24.50;46.90;23.80;102147.00;;;;5067402;28;20032;-66
2022/08/06 01:57:57;;;;;;;0.85;0.32;;;24.50;47.00;23.80;102151.00;;;;5068228;28;20041;-66
2022/08/06 02:00:46;;;;;;;0.65;0.40;;;24.50;47.00;23.70;102154.00;;;;5073857;28;20039;-66
2022/08/06 02:03:45;;;;;;;1.50;0.35;;;24.40;47.00;23.70;102159.00;;;;5073731;28;20056;-66
2022/08/06 02:06:43;;;;;;;0.30;0.30;;;24.50;46.90;23.70;102152.00;;;;5058726;28;20612;-66
2022/08/06 02:09:29;;;;;;;0.40;0.40;;;24.40;47.20;23.70;102148.00;;;;5069125;28;20530;-66
2022/08/06 02:12:20;;;;;;;0.73;0.30;;;24.40;47.00;23.70;102152.00;;;;5052954;28;20465;-66
2022/08/06 02:15:27;;;;;;;1.27;0.60;;;24.40;47.00;23.60;102149.00;;;;5074949;28;20040;-66
2022/08/06 02:18:13;;;;;;;0.40;0.22;;;24.40;47.00;23.60;102150.00;;;;5064952;28;20128;-66
2022/08/06 02:20:59;;;;;;;0.47;0.30;;;24.40;46.80;23.60;102163.00;;;;5072000;28;20040;-66
2022/08/06 02:23:45;;;;;;;0.73;0.20;;;24.30;46.60;23.60;102158.00;;;;5068342;28;20043;-66
2022/08/06 02:26:31;;;;;;;0.43;0.20;;;24.40;46.70;23.60;102157.00;;;;5069879;28;20040;-66
2022/08/06 02:29:17;;;;;;;0.50;0.20;;;24.30;46.60;23.60;102169.00;;;;5060184;28;20034;-66
2022/08/06 02:32:03;;;;;;;0.93;0.40;;;24.30;46.60;23.60;102158.00;;;;5063057;28;20032;-66
2022/08/06 02:34:50;;;;;;;0.95;0.20;;;24.30;46.60;23.60;102164.00;;;;5072657;28;20068;-66
2022/08/06 02:37:49;;;;;;;0.20;0.20;;;24.30;46.50;23.60;102159.00;;;;5063634;28;20052;-66
2022/08/06 02:40:40;;;;;;;0.20;0.20;;;24.20;46.40;23.60;102162.00;;;;5045289;28;20048;-66
2022/08/06 02:43:34;;;;;;;0.30;0.30;;;24.20;46.40;23.50;102157.00;;;;5062422;28;20044;-66
2022/08/06 02:46:53;;;;;;;0.38;0.20;;;24.20;46.30;23.50;102164.00;;;;5046788;28;20120;-66
2022/08/06 02:49:42;;;;;;;0.63;0.55;;;24.20;46.30;23.50;102168.00;;;;5039648;28;20046;-66
2022/08/06 02:52:54;;;;;;;1.33;0.40;;;24.30;46.50;23.50;102171.00;;;;5068509;28;20040;-66
2022/08/06 02:55:42;;;;;;;0.38;0.28;;;24.20;46.30;23.50;102169.00;;;;5058000;28;20114;-66
2022/08/06 02:58:35;;;;;;;0.20;0.15;;;24.20;46.30;23.50;102167.00;;;;5061038;28;20401;-66
2022/08/06 03:01:25;;;;;;;0.30;0.30;;;24.20;46.40;23.50;102177.00;;;;5067266;28;20036;-66
2022/08/06 03:04:11;;;;;;;0.28;0.25;;;24.20;46.40;23.50;102175.00;;;;5051937;28;20040;-66
2022/08/06 03:06:59;;;;;;;1.35;0.25;;;24.10;46.30;23.50;102179.00;;;;5048436;28;20201;-66
2022/08/06 03:09:47;;;;;;;1.23;0.30;;;24.10;46.30;23.50;102180.00;;;;5066583;28;20478;-66
2022/08/06 03:12:33;;;;;;;0.45;0.20;;;24.00;46.30;23.40;102187.00;;;;5063617;28;20154;-66
2022/08/06 03:15:19;;;;;;;0.52;0.30;;;24.20;46.40;23.40;102188.00;;;;5071911;28;20031;-66
2022/08/06 03:18:05;;;;;;;0.63;0.20;;;24.10;46.40;23.40;102191.00;;;;5058381;28;20508;-66
2022/08/06 03:20:51;;;;;;;1.30;0.20;;;24.10;46.30;23.40;102187.00;;;;5069653;28;20474;-66
2022/08/06 03:23:37;;;;;;;1.65;0.50;;;24.10;47.00;23.40;102184.00;;;;5068138;28;20470;-66
2022/08/06 03:26:27;;;;;;;0.30;0.20;;;24.10;46.30;23.40;102191.00;;;;5067550;28;20052;-66
2022/08/06 03:29:13;;;;;;;2.47;0.30;;;24.10;46.20;23.40;102195.00;;;;5063704;28;20043;-66
2022/08/06 03:31:59;;;;;;;0.50;0.38;;;24.10;46.30;23.40;102186.00;;;;5061335;28;20044;-66
2022/08/06 03:34:45;;;;;;;1.02;0.30;;;24.10;46.20;23.40;102188.00;;;;5072112;28;20032;-66
2022/08/06 03:37:31;;;;;;;1.55;0.20;;;24.10;46.40;23.40;102195.00;;;;5069150;28;20398;-66
2022/08/06 03:40:17;;;;;;;0.20;0.20;;;24.10;46.20;23.40;102187.00;;;;5068804;28;20040;-66
2022/08/06 03:43:04;;;;;;;1.30;0.40;;;24.10;46.30;23.40;102195.00;;;;5064042;28;20526;-66
2022/08/06 03:45:53;;;;;;;2.08;0.45;;;24.10;46.20;23.30;102191.00;;;;5088329;28;20092;-66
2022/08/06 03:48:40;;;;;;;0.32;0.32;;;24.00;46.20;23.30;102204.00;;;;5076726;28;20047;-66
2022/08/06 03:51:28;;;;;;;0.45;0.28;;;24.00;46.20;23.30;102205.00;;;;5075575;28;20041;-66
2022/08/06 03:54:15;;;;;;;0.77;0.30;;;24.00;46.20;23.30;102199.00;;;;5072280;28;20390;-66
2022/08/06 03:57:08;;;;;;;0.57;0.30;;;24.00;46.10;23.30;102195.00;;;;5067849;28;20040;-66
2022/08/06 03:59:58;;;;;;;0.35;0.22;;;24.00;46.20;23.30;102207.00;;;;5078227;28;20036;-66
2022/08/06 04:02:50;;;;;;;0.70;0.30;;;24.00;46.20;23.30;102216.00;;;;5076995;28;20050;-66
2022/08/06 04:05:37;;;;;;;0.20;0.20;;;24.00;46.70;23.30;102223.00;;;;5069858;28;20097;-66
2022/08/06 04:08:23;;;;;;;0.50;0.20;;;24.00;46.20;23.20;102216.00;;;;5055496;28;20029;-66
2022/08/06 04:11:10;;;;;;;0.20;0.20;;;24.00;46.20;23.30;102224.00;;;;5074821;28;20760;-66
2022/08/06 04:13:56;;;;;;;0.32;0.32;;;23.90;46.10;23.20;102227.00;;;;5061385;28;20043;-66
2022/08/06 04:16:42;;;;;;;0.80;0.20;;;24.00;46.10;23.20;102233.00;;;;5084238;28;20412;-66
2022/08/06 04:19:28;;;;;;;0.17;0.17;;;23.90;46.10;23.20;102234.00;;;;5063941;28;20338;-66
2022/08/06 04:22:14;;;;;;;0.30;0.30;;;23.90;46.10;23.20;102239.00;;;;5076909;28;20045;-66
2022/08/06 04:25:00;;;;;;;0.30;0.30;;;23.90;46.00;23.20;102253.00;;;;5078739;28;20039;-66
2022/08/06 04:27:46;;;;;;;0.28;0.28;;;23.90;46.10;23.20;102247.00;;;;5084092;28;20031;-66
2022/08/06 04:30:33;;;;;;;0.40;0.30;;;23.80;46.00;23.20;102247.00;;;;5077974;28;20044;-66
2022/08/06 04:33:21;;;;;;;2.78;0.28;;;23.90;46.10;23.20;102245.00;;;;5043562;28;20042;-66
2022/08/06 04:36:07;;;;;;;;;;;23.80;46.10;23.10;102242.00;;;;5063086;28;20370;-66
2022/08/06 04:38:53;;;;;;;0.50;0.35;;;23.90;46.40;23.20;102245.00;;;;5056198;28;20338;-66
2022/08/06 04:41:39;;;;;;;0.30;0.20;;;23.80;45.90;23.10;102260.00;;;;5063648;28;20043;-66
2022/08/06 04:44:27;;;;;;;0.30;0.30;;;23.80;45.90;23.10;102259.00;;;;5074494;28;20052;-66
2022/08/06 04:47:13;;;;;;;0.10;0.10;;;23.90;46.00;23.10;102260.00;;;;5062725;28;20109;-66
2022/08/06 04:49:59;;;;;;;0.45;0.28;;;23.90;45.90;23.10;102266.00;;;;5068616;28;20036;-66
2022/08/06 04:52:45;;;;;;;0.60;0.32;;;23.80;45.90;23.10;102267.00;;;;5070402;28;20040;-66
2022/08/06 04:55:32;;;;;;;0.20;0.20;;;23.80;45.80;23.10;102266.00;;;;5093027;28;20044;-66
2022/08/06 04:58:18;;;;;;;0.68;0.50;;;23.80;45.80;23.10;102269.00;;;;5081128;28;20058;-66
2022/08/06 05:01:04;;;;;;;0.50;0.30;;;23.80;45.80;23.10;102270.00;;;;5093023;28;20059;-66
2022/08/06 05:03:50;;;;;;;0.80;0.57;;;23.80;45.70;23.10;102273.00;;;;5085897;28;20064;-66
2022/08/06 05:07:00;;;;;;;0.17;0.17;;;23.80;45.70;23.10;102283.00;;;;5090614;28;20043;-66
2022/08/06 05:09:46;;;;;;;0.20;0.20;;;23.80;45.60;23.10;102279.00;;;;5059969;28;20394;-66
2022/08/06 05:12:48;;;;;;;0.15;0.15;;;23.80;45.70;23.10;102290.00;;;;5085890;28;20401;-66
2022/08/06 05:15:40;;;;;;;0.25;0.20;;;23.80;45.60;23.10;102292.00;;;;5081701;28;20071;-66
2022/08/06 05:18:53;;;;;;;0.38;0.30;;;23.80;45.60;23.10;102281.00;;;;5074168;28;20425;-66
2022/08/06 05:21:39;;;;;;;0.30;0.20;;;23.80;45.60;23.10;102286.00;;;;5092369;28;20591;-66
2022/08/06 05:24:25;;;;;;;2.00;0.30;;;23.80;45.70;23.10;102285.00;;;;5063521;28;20044;-66
2022/08/06 05:27:11;;;;;;;0.10;0.10;;;23.80;45.60;23.10;102290.00;;;;5053949;28;20098;-66
2022/08/06 05:29:57;;;;;;;0.52;0.30;;;23.80;45.60;23.10;102293.00;;;;5070455;28;20035;-66
2022/08/06 05:32:46;;;;;;;0.77;0.20;;;23.80;45.50;23.10;102291.00;;;;5071193;28;20036;-66
2022/08/06 05:35:32;;;;;;;0.38;0.30;;;23.80;45.50;23.10;102288.00;;;;5082387;28;20042;-66
2022/08/06 05:38:19;;;;;;;0.20;0.20;;;23.80;45.50;23.10;102287.00;;;;5073524;28;20024;-66
2022/08/06 05:41:07;;;;;;;0.20;0.20;;;23.80;45.40;23.10;102294.00;;;;5088176;28;20032;-66
2022/08/06 05:43:53;;;;;;;0.65;0.32;;;23.80;45.40;23.10;102287.00;;;;5081217;28;20050;-66
2022/08/06 05:46:51;;;;;;;0.98;0.20;;;23.80;45.40;23.10;102291.00;;;;5087328;28;20119;-66
2022/08/06 05:50:03;;;;;;;0.43;0.20;;;23.80;45.50;23.10;102297.00;;;;5068445;28;20402;-66
2022/08/06 05:52:54;;;;;;;0.40;0.30;;;23.90;45.70;23.10;102293.00;;;;5068828;28;20058;-66
2022/08/06 05:55:48;;;;;;;0.30;0.30;;;23.90;45.70;23.10;102299.00;;;;5073328;28;20119;-66
2022/08/06 05:58:43;;;;;;;0.30;0.30;;;23.80;45.60;23.10;102295.00;;;;5064973;28;20048;-66
2022/08/06 06:01:29;;;;;;;0.85;0.40;;;23.80;45.60;23.10;102296.00;;;;5079709;28;20576;-66
2022/08/06 06:04:15;;;;;;;0.28;0.28;;;23.90;45.60;23.10;102294.00;;;;5071110;28;20050;-66
2022/08/06 06:07:01;;;;;;;0.35;0.20;;;23.90;45.60;23.10;102303.00;;;;5070696;28;20467;-66
2022/08/06 06:09:47;;;;;;;0.63;0.32;;;23.90;45.70;23.10;102307.00;;;;5067203;28;20542;-66
2022/08/06 06:12:34;;;;;;;1.52;0.40;;;23.90;45.70;23.10;102308.00;;;;5065979;28;20047;-66
2022/08/06 06:15:20;;;;;;;0.73;0.27;;;23.90;45.80;23.10;102315.00;;;;5069525;28;20036;-66
2022/08/06 06:18:26;;;;;;;0.50;0.22;;;23.90;45.80;23.10;102314.00;;;;5057953;28;20278;-66
2022/08/06 06:21:54;;;;;;;0.50;0.28;;;23.90;45.90;23.10;102320.00;;;;5069358;28;20039;-66
2022/08/06 06:25:06;;;;;;;1.30;0.60;;;23.90;45.80;23.10;102315.00;;;;5058445;28;20074;-66
2022/08/06 06:28:39;;;;;;;0.93;0.40;;;23.90;45.90;23.10;102331.00;;;;5067743;28;20036;-66
2022/08/06 06:32:27;;;;;;;0.60;0.30;;;23.90;45.80;23.10;102336.00;;;;5064298;28;20109;-66
2022/08/06 06:35:43;;;;;;;1.38;0.30;;;24.00;46.00;23.10;102329.00;;;;5054162;28;20077;-66
2022/08/06 06:38:38;;;;;;;1.35;0.40;;;24.00;45.90;23.10;102324.00;;;;5068738;28;20558;-66
2022/08/06 06:41:40;;;;;;;1.48;0.50;;;24.00;46.00;23.20;102329.00;;;;5065443;28;20056;-66
2022/08/06 06:44:39;;;;;;;0.50;0.38;;;24.00;46.00;23.20;102335.00;;;;5049417;28;20520;-66
2022/08/06 06:47:29;;;;;;;0.68;0.30;;;24.00;46.10;23.20;102332.00;;;;5050422;28;20048;-66
2022/08/06 06:50:32;;;;;;;0.60;0.50;;;24.00;46.10;23.20;102334.00;;;;5072430;28;20047;-66
2022/08/06 06:53:18;;;;;;;1.88;0.30;;;24.00;46.20;23.20;102343.00;;;;5051285;28;20481;-65
2022/08/06 06:56:04;;;;;;;1.50;0.30;;;24.10;46.30;23.20;102337.00;;;;5072155;28;20327;-66
2022/08/06 06:59:02;;;;;;;0.43;0.25;;;24.00;46.20;23.20;102346.00;;;;5067020;28;20044;-66
2022/08/06 07:01:48;;;;;;;1.90;0.50;;;24.00;46.30;23.20;102346.00;;;;5055706;28;20043;-66
2022/08/06 07:04:34;;;;;;;0.63;0.30;;;24.10;46.30;23.20;102349.00;;;;5070625;28;20043;-66
2022/08/06 07:07:21;;;;;;;0.37;0.37;;;24.10;46.30;23.30;102349.00;;;;5062117;28;20122;-66
2022/08/06 07:10:09;;;;;;;1.90;0.40;;;24.10;46.30;23.30;102355.00;;;;5068906;28;20115;-66
2022/08/06 07:12:55;;;;;;;0.32;0.28;;;24.10;46.40;23.30;102352.00;;;;5064449;28;20501;-66
2022/08/06 07:15:41;;;;;;;1.77;0.52;;;24.10;46.30;23.30;102359.00;;;;5059482;28;20039;-66
2022/08/06 07:18:27;;;;;;;0.45;0.45;;;24.20;46.30;23.30;102360.00;;;;5059095;28;20067;-66
2022/08/06 07:21:15;;;;;;;1.60;0.40;;;24.20;46.30;23.30;102362.00;;;;5056667;28;20069;-66
2022/08/06 07:24:01;;;;;;;0.50;0.50;;;24.10;46.20;23.30;102366.00;;;;5055641;28;20033;-67
2022/08/06 07:26:47;;;;;;;2.28;0.40;;;24.20;46.30;23.30;102365.00;;;;5077623;28;20447;-66
2022/08/06 07:29:33;;;;;;;1.42;0.45;;;24.20;46.40;23.30;102363.00;;;;5068820;28;20094;-66
2022/08/06 07:32:19;;;;;;;1.20;0.30;;;24.20;46.40;23.40;102365.00;;;;5059279;28;20113;-65
2022/08/06 07:35:07;;;;;;;0.55;0.40;;;24.20;46.40;23.40;102368.00;;;;5052604;28;20043;-65
2022/08/06 07:37:55;;;;;;;;;;;24.20;46.50;23.30;102369.00;;;;5072312;28;20553;-65
2022/08/06 07:40:57;;;;;;;0.73;0.30;;;24.30;46.60;23.30;102365.00;;;;5065757;28;20057;-66
2022/08/06 07:43:48;;;;;;;1.25;0.30;;;24.30;46.50;23.40;102366.00;;;;5058165;28;20055;-65
2022/08/06 07:46:48;;;;;;;0.70;0.30;;;24.30;46.50;23.40;102373.00;;;;5077473;28;20044;-66
2022/08/06 07:49:40;;;;;;;1.60;0.50;;;24.30;46.50;23.40;102381.00;;;;5052457;28;20043;-65
2022/08/06 07:52:26;;;;;;;0.52;0.30;;;24.30;46.50;23.40;102372.00;;;;5049104;28;20057;-65
2022/08/06 07:55:13;;;;;;;1.10;0.63;;;24.30;46.40;23.40;102374.00;;;;5078288;28;20443;-65
2022/08/06 07:57:59;;;;;;;0.77;0.30;;;24.30;46.40;23.40;102369.00;;;;5064923;28;20075;-66
2022/08/06 08:00:47;;;;;;;0.30;0.30;;;24.40;46.50;23.40;102386.00;;;;5067028;28;20073;-66
2022/08/06 08:06:38;;;;;;;1.52;0.38;;;24.40;46.50;23.40;102383.00;;;;5057708;28;20692;-66
2022/08/06 08:09:25;;;;;;;0.43;0.30;;;24.40;46.40;23.40;102374.00;;;;5066791;28;20047;-70
2022/08/06 08:12:13;;;;;;;0.70;0.30;;;24.40;46.50;23.40;102382.00;;;;5063564;28;20113;-66
2022/08/06 08:14:59;;;;;;;0.82;0.20;;;24.40;46.40;23.40;102383.00;;;;5072725;28;20072;-66
2022/08/06 08:17:45;;;;;;;1.35;0.28;;;24.40;46.30;23.40;102377.00;;;;5063191;28;20501;-66
2022/08/06 08:20:31;;;;;;;0.50;0.13;;;24.40;46.30;23.40;102387.00;;;;5068220;28;20075;-66
2022/08/06 08:23:17;;;;;;;0.63;0.20;;;24.40;46.20;23.40;102378.00;;;;5068809;28;20036;-66
2022/08/06 08:26:03;;;;;;;0.90;0.35;;;24.40;46.20;23.50;102385.00;;;;5056002;28;20052;-66
2022/08/06 08:28:49;;;;;;;0.25;0.20;;;24.40;46.10;23.50;102391.00;;;;5060556;28;20483;-66
2022/08/06 08:31:36;;;;;;;0.88;0.20;;;24.40;46.10;23.50;102389.00;;;;5085331;28;20039;-65
2022/08/06 08:34:22;;;;;;;0.32;0.20;;;24.40;46.00;23.50;102376.00;;;;5065222;28;20040;-66
2022/08/06 08:37:08;;;;;;;0.22;0.15;;;24.40;45.90;23.50;102385.00;;;;5056345;28;20044;-65
2022/08/06 08:39:54;;;;;;;1.23;0.30;;;24.50;45.90;23.50;102387.00;;;;5064410;28;20048;-65
2022/08/06 08:42:45;;;;;;;0.40;0.20;;;24.50;45.90;23.50;102387.00;;;;5077868;28;20044;-66
2022/08/06 08:45:31;;;;;;;0.30;0.28;;;24.50;45.80;23.50;102386.00;;;;5055550;28;20469;-65
2022/08/06 08:48:21;;;;;;;0.10;0.10;;;24.50;45.80;23.50;102396.00;;;;5057279;28;20040;-66
2022/08/06 08:51:07;;;;;;;2.30;0.50;;;24.50;45.70;23.50;102387.00;;;;5074292;28;20432;-65
2022/08/06 08:53:54;;;;;;;0.50;0.20;;;24.50;45.70;23.50;102387.00;;;;5059538;28;20045;-66
2022/08/06 08:56:40;;;;;;;0.43;0.10;;;24.50;45.70;23.50;102393.00;;;;5081635;28;20040;-66
2022/08/06 08:59:27;;;;;;;0.63;0.20;;;24.50;45.60;23.50;102387.00;;;;5069013;28;20182;-65
2022/08/06 09:02:13;;;;;;;0.55;0.20;;;24.50;45.60;23.50;102388.00;;;;5065143;28;20421;-66
2022/08/06 09:04:59;;;;;;;1.10;0.30;;;24.50;45.50;23.50;102385.00;;;;5077048;28;20484;-65
2022/08/06 09:07:45;;;;;;;0.10;0.10;;;24.50;45.50;23.50;102384.00;;;;5068766;28;20497;-66
2022/08/06 09:10:31;;;;;;;0.10;0.10;;;24.50;45.50;23.50;102388.00;;;;5059934;28;20378;-65
2022/08/06 09:13:17;;;;;;;0.10;0.10;;;24.50;45.50;23.50;102386.00;;;;5060515;28;20545;-66
2022/08/06 09:16:04;;;;;;;1.77;0.20;;;24.50;45.40;23.50;102386.00;;;;5065103;28;20036;-66
2022/08/06 09:18:50;;;;;;;0.20;0.10;;;24.50;45.40;23.50;102391.00;;;;5083954;28;20044;-66
2022/08/06 09:21:36;;;;;;;0.20;0.20;;;24.50;45.30;23.60;102385.00;;;;5066587;28;20047;-66
2022/08/06 09:24:22;;;;;;;0.20;0.20;;;24.50;45.30;23.60;102388.00;;;;5070853;28;20040;-66
2022/08/06 09:27:13;;;;;;;0.63;0.25;;;24.50;45.30;23.60;102384.00;;;;5067481;28;20114;-65
2022/08/06 09:30:03;;;;;;;0.73;0.10;;;24.60;45.40;23.50;102386.00;;;;5065990;28;20043;-65
2022/08/06 09:32:49;;;;;;;0.85;0.20;;;24.60;45.40;23.60;102400.00;;;;5081832;28;20044;-66
2022/08/06 09:35:35;;;;;;;0.65;0.10;;;24.60;45.40;23.60;102404.00;;;;5068372;28;20118;-65
2022/08/06 09:38:21;;;;;;;0.45;0.17;;;24.50;45.20;23.60;102405.00;;;;5076708;28;20533;-65
2022/08/06 09:41:10;;;;;;;0.30;0.10;;;24.60;45.30;23.60;102400.00;;;;5064963;28;20047;-66
2022/08/06 09:43:57;;;;;;;0.43;0.20;;;24.60;45.30;23.60;102403.00;;;;5079479;28;20043;-65
2022/08/06 09:46:44;;;;;;;0.15;0.10;;;24.60;45.30;23.60;102405.00;;;;5080882;28;20048;-66
2022/08/06 09:49:43;;;;;;;0.28;0.20;;;24.60;45.30;23.60;102396.00;;;;5065054;28;20059;-65
2022/08/06 09:52:29;;;;;;;0.77;0.20;;;24.70;45.20;23.60;102402.00;;;;5065686;28;20436;-67
2022/08/06 09:55:28;;;;;;;0.10;0.10;;;24.60;45.10;23.60;102406.00;;;;5067604;28;20039;-66
2022/08/06 09:58:34;;;;;;;0.40;0.10;;;24.60;45.20;23.60;102406.00;;;;5065360;28;20445;-65
2022/08/06 10:01:22;;;;;;;0.17;0.17;;;24.60;45.10;23.60;102406.00;;;;5066983;28;20120;-65
2022/08/06 10:04:38;;;;;;;0.10;0.10;;;24.60;45.10;23.60;102395.00;;;;5054058;28;20037;-65
2022/08/06 10:07:30;;;;;;;0.13;0.10;;;24.60;45.00;23.60;102400.00;;;;5066987;28;20069;-65
2022/08/06 10:10:17;;;;;;;0.68;0.35;;;24.60;45.00;23.60;102399.00;;;;5081697;28;20096;-65
2022/08/06 10:13:26;;;;;;;1.55;0.20;;;24.60;44.90;23.60;102396.00;;;;5073378;28;20469;-65
2022/08/06 10:16:26;;;;;;;0.10;0.10;;;24.60;44.80;23.60;102401.00;;;;5058377;28;20051;-65
2022/08/06 10:19:16;;;;;;;0.57;0.17;;;24.60;44.50;23.60;102403.00;;;;5073053;28;20040;-65
2022/08/06 10:22:12;;;;;;;0.28;0.13;;;24.70;44.70;23.60;102408.00;;;;5086438;28;20040;-65
2022/08/06 10:25:02;;;;;;;0.32;0.10;;;24.60;44.60;23.60;102404.00;;;;5064022;28;20063;-65
2022/08/06 10:27:48;;;;;;;0.10;0.10;;;24.60;44.70;23.60;102406.00;;;;5067349;28;20036;-65
2022/08/06 10:30:34;;;;;;;0.80;0.22;;;24.60;44.80;23.60;102400.00;;;;5075860;28;20067;-66
2022/08/06 10:33:22;;;;;;;4.30;0.30;;;24.60;44.80;23.60;102393.00;;;;5061736;28;20032;-65
2022/08/06 10:36:12;;;;;;;0.57;0.20;;;24.60;44.70;23.60;102392.00;;;;5071341;28;20096;-65
2022/08/06 10:38:58;;;;;;;0.30;0.10;;;24.60;44.60;23.60;102382.00;;;;5066417;28;20565;-66
2022/08/06 10:41:45;;;;;;;1.70;0.17;;;24.70;44.80;23.60;102391.00;;;;5080732;28;20115;-65
2022/08/06 10:44:32;;;;;;;0.40;0.20;;;24.70;44.70;23.60;102393.00;;;;5069723;28;20040;-65
2022/08/06 10:47:18;;;;;;;0.63;0.10;;;24.70;44.70;23.70;102387.00;;;;5064505;28;20036;-66
2022/08/06 10:50:04;;;;;;;0.77;0.22;;;24.70;44.70;23.60;102393.00;;;;5081855;28;20542;-66
2022/08/06 10:52:50;;;;;;;1.70;0.43;;;24.70;44.70;23.70;102398.00;;;;5053930;28;20550;-66
2022/08/06 10:55:36;;;;;;;0.65;0.20;;;24.70;44.50;23.70;102398.00;;;;5069435;28;20036;-66
2022/08/06 10:58:22;;;;;;;0.30;0.20;;;24.70;44.50;23.70;102391.00;;;;5068358;28;20040;-66
2022/08/06 11:01:14;;;;;;;0.77;0.20;;;24.70;44.50;23.70;102390.00;;;;5060421;28;20040;-65
2022/08/06 11:04:44;;;;;;;1.38;0.28;;;24.70;44.40;23.60;102384.00;;;;5072917;28;20044;-65
2022/08/06 11:07:54;;;;;;;0.30;0.25;;;24.70;44.50;23.60;102383.00;;;;5077716;28;20079;-66
2022/08/06 11:11:01;;;;;;;1.50;0.28;;;24.70;44.50;23.60;102368.00;;;;5069950;28;20044;-66
2022/08/06 11:14:07;;;;;;;0.70;0.20;;;24.70;44.40;23.60;102370.00;;;;5081218;28;20062;-66
2022/08/06 11:16:58;;;;;;;1.17;0.20;;;24.70;44.20;23.70;102363.00;;;;5078422;28;20058;-65
2022/08/06 11:19:47;;;;;;;1.45;0.30;;;24.70;44.30;23.70;102361.00;;;;5084326;28;20040;-65
2022/08/06 11:22:38;;;;;;;0.65;0.10;;;24.70;44.30;23.70;102366.00;;;;5070797;28;20043;-65
2022/08/06 11:25:52;;;;;;;0.10;0.10;;;24.70;44.10;23.70;102352.00;;;;5074076;28;20048;-66
2022/08/06 11:28:38;;;;;;;0.45;0.30;;;24.70;44.20;23.70;102367.00;;;;5072338;28;20093;-65
2022/08/06 11:31:51;;;;;;;1.73;0.15;;;24.70;44.10;23.70;102356.00;;;;5083859;28;20093;-66
2022/08/06 11:34:42;;;;;;;0.30;0.20;;;24.70;44.80;23.70;102354.00;;;;5072860;28;20137;-66
2022/08/06 11:37:42;;;;;;;0.30;0.20;;;24.70;43.80;23.70;102359.00;;;;5068788;28;20040;-65
2022/08/06 11:40:37;;;;;;;1.08;0.20;;;24.70;43.80;23.70;102357.00;;;;5065945;28;20044;-66
2022/08/06 11:43:48;;;;;;;0.20;0.20;;;24.80;43.80;23.70;102348.00;;;;5069776;28;20400;-66
2022/08/06 11:46:41;;;;;;;0.80;0.10;;;24.70;43.80;23.70;102350.00;;;;5068903;28;20071;-65
2022/08/06 11:49:39;;;;;;;0.55;0.20;;;24.80;43.70;23.70;102348.00;;;;5082360;28;20040;-66
2022/08/06 11:52:38;;;;;;;0.20;0.20;;;24.80;43.60;23.70;102355.00;;;;5084130;28;20405;-65
2022/08/06 11:55:24;;;;;;;0.20;0.20;;;24.70;43.70;23.70;102360.00;;;;5077839;28;20086;-70
2022/08/06 11:58:17;;;;;;;0.88;0.20;;;24.70;44.50;23.70;102360.00;;;;5055270;28;20486;-64
2022/08/06 12:01:03;;;;;;;0.47;0.10;;;24.80;43.90;23.70;102361.00;;;;5087826;28;20037;-72
2022/08/06 12:03:49;;;;;;;0.95;0.20;;;24.80;43.90;23.70;102360.00;;;;5087866;28;20044;-64
2022/08/06 12:06:35;;;;;;;0.68;0.20;;;24.80;44.00;23.80;102358.00;;;;5084923;28;20040;-64
2022/08/06 12:09:22;;;;;;;0.82;0.40;;;24.80;43.90;23.80;102358.00;;;;5056844;28;20041;-64
2022/08/06 12:12:27;;;;;;;0.35;0.15;;;24.80;43.80;23.80;102361.00;;;;5046893;28;20036;-64
2022/08/06 12:15:13;;;;;;;1.58;0.30;;;24.80;43.70;23.80;102360.00;;;;5096643;28;20043;-64
2022/08/06 12:18:01;;;;;;;2.22;0.20;;;24.80;43.70;23.80;102356.00;;;;5079570;28;20123;-64
2022/08/06 12:20:49;;;;;;;0.65;0.30;;;24.80;43.60;23.80;102357.00;;;;5079515;28;20123;-64
2022/08/06 12:23:35;;;;;;;0.20;0.13;;;24.80;43.60;23.80;102346.00;;;;5070528;28;20052;-64
2022/08/06 12:26:21;;;;;;;1.45;0.28;;;24.80;43.60;23.80;102352.00;;;;5073983;28;20509;-64
2022/08/06 12:29:07;;;;;;;1.08;0.40;;;24.80;43.60;23.80;102351.00;;;;5088726;28;20040;-64
2022/08/06 12:31:53;;;;;;;0.50;0.13;;;24.90;43.60;23.80;102346.00;;;;5070362;28;20066;-64
2022/08/06 12:34:39;;;;;;;1.10;0.10;;;24.90;43.50;23.80;102346.00;;;;5086176;28;20036;-64